Time;durP1;ratioP1;P1;durP2;ratioP2;P2;SDS_P1;SDS_P2;PMS_P1;PMS_P2;Temp;Humidity;BMP_temperature;BMP_pressure;BME280_temperature;BME280_humidity;BME280_pressure;Samples;Min_cycle;Max_cycle;Signal;HPM_P1;HPM_P2
2022/08/05 00:01:47;;;;;;;7.90;4.40;;;;;;;24.24;50.88;100277.03;5030989;28;20064;-82
2022/08/05 00:04:13;;;;;;;13.75;4.25;;;;;;;24.15;51.14;100275.66;5031423;28;20549;-83
2022/08/05 00:06:38;;;;;;;8.73;4.15;;;;;;;24.18;51.37;100297.09;5032556;28;20433;-83
2022/08/05 00:09:05;;;;;;;8.15;3.85;;;;;;;24.02;51.63;100284.78;5047952;28;20060;-83
2022/08/05 00:11:30;;;;;;;5.95;3.72;;;;;;;23.91;51.97;100271.78;5032974;28;20112;-82
2022/08/05 00:13:56;;;;;;;10.32;4.20;;;;;;;23.94;52.40;100289.69;5033228;28;20116;-82
2022/08/05 00:16:22;;;;;;;7.40;3.97;;;;;;;23.83;52.29;100279.44;5031384;28;20758;-82
2022/08/05 00:18:48;;;;;;;7.40;3.75;;;;;;;23.71;52.38;100268.34;5032469;28;20036;-82
2022/08/05 00:21:14;;;;;;;7.88;3.90;;;;;;;23.76;52.71;100286.84;5031188;28;20021;-82
2022/08/05 00:23:42;;;;;;;8.75;4.25;;;;;;;23.61;52.98;100278.09;5031195;28;20033;-75
2022/08/05 00:26:07;;;;;;;7.72;3.80;;;;;;;23.63;53.35;100293.25;5030965;28;20163;-83
2022/08/05 00:28:34;;;;;;;6.55;3.80;;;;;;;23.58;54.02;100294.97;5032062;28;20029;-76
2022/08/05 00:30:59;;;;;;;10.68;4.47;;;;;;;23.51;54.37;100294.97;5030324;28;20037;-77
2022/08/05 00:33:25;;;;;;;7.38;3.97;;;;;;;23.34;54.66;100271.91;5046639;28;20036;-76
2022/08/05 00:35:50;;;;;;;10.07;4.20;;;;;;;23.28;55.18;100267.28;5031451;28;20021;-74
2022/08/05 00:38:16;;;;;;;9.35;3.90;;;;;;;23.24;55.26;100274.28;5047943;28;20143;-82
2022/08/05 00:40:51;;;;;;;5.68;4.10;;;;;;;23.23;55.42;100271.75;5033005;28;20033;-82
2022/08/05 00:43:17;;;;;;;7.10;3.92;;;;;;;23.23;55.47;100277.22;5028447;28;20056;-82
2022/08/05 00:45:43;;;;;;;5.90;3.97;;;;;;;22.99;55.74;100261.53;5047741;28;20041;-83
2022/08/05 00:48:16;;;;;;;8.85;4.03;;;;;;;23.09;55.59;100289.25;5032548;28;20048;-83
2022/08/05 00:50:44;;;;;;;5.40;3.97;;;;;;;23.00;55.86;100285.94;5031888;28;20100;-83
2022/08/05 00:53:10;;;;;;;8.13;4.13;;;;;;;22.94;56.06;100278.56;5031709;28;20032;-82
2022/08/05 00:55:37;;;;;;;6.47;3.90;;;;;;;22.74;56.27;100261.38;5032353;28;20041;-83
2022/08/05 00:58:03;;;;;;;9.40;4.57;;;;;;;22.84;56.44;100286.38;5031819;28;20032;-83
2022/08/05 01:00:29;;;;;;;9.77;4.22;;;;;;;22.81;56.59;100281.34;5047445;28;20022;-83
2022/08/05 01:02:57;;;;;;;8.88;4.07;;;;;;;22.65;57.17;100267.28;5047284;28;20037;-82
2022/08/05 01:05:23;;;;;;;10.13;3.97;;;;;;;22.67;57.49;100266.03;5027056;28;20482;-83
2022/08/05 01:07:49;;;;;;;12.43;4.63;;;;;;;22.69;57.61;100284.97;5030662;28;20479;-83
2022/08/05 01:10:17;;;;;;;12.23;3.90;;;;;;;22.65;57.83;100281.81;5030570;28;20029;-83
2022/08/05 01:12:47;;;;;;;9.32;4.60;;;;;;;22.55;58.12;100273.19;5044648;28;20497;-75
2022/08/05 01:15:19;;;;;;;11.38;4.60;;;;;;;22.44;58.50;100265.59;5029313;28;20566;-76
2022/08/05 01:17:50;;;;;;;10.63;3.90;;;;;;;22.53;58.33;100280.75;5023857;28;20462;-76
2022/08/05 01:20:28;;;;;;;7.03;4.30;;;;;;;22.51;58.29;100282.03;5023954;28;20175;-76
2022/08/05 01:22:59;;;;;;;8.10;4.80;;;;;;;22.47;58.96;100278.03;5035360;28;20041;-76
2022/08/05 01:25:40;;;;;;;5.35;3.83;;;;;;;22.43;59.24;100274.84;5028334;28;20037;-76
2022/08/05 01:28:19;;;;;;;8.93;4.05;;;;;;;22.11;59.16;100234.72;5030157;28;20163;-76
2022/08/05 01:31:03;;;;;;;9.20;5.05;;;;;;;22.32;59.47;100279.06;5030358;28;20085;-82
2022/08/05 01:33:42;;;;;;;8.48;4.45;;;;;;;22.19;59.47;100264.59;5033894;28;20685;-83
2022/08/05 01:36:12;;;;;;;7.30;4.25;;;;;;;22.23;59.55;100274.88;5028969;28;20043;-82
2022/08/05 01:38:38;;;;;;;5.00;3.85;;;;;;;22.02;59.59;100252.38;5030123;28;20450;-82
2022/08/05 01:41:06;;;;;;;13.23;4.75;;;;;;;22.13;60.10;100277.19;5024376;28;20033;-83
2022/08/05 01:43:32;;;;;;;7.55;4.78;;;;;;;22.02;60.07;100268.75;5028696;28;20026;-82
2022/08/05 01:45:59;;;;;;;8.82;4.05;;;;;;;21.94;60.10;100263.53;5029942;28;20071;-83
2022/08/05 01:48:26;;;;;;;10.15;4.38;;;;;;;22.02;59.93;100282.41;5045532;28;20038;-82
2022/08/05 01:50:54;;;;;;;9.38;4.38;;;;;;;21.84;60.06;100265.81;5035724;28;20017;-76
2022/08/05 01:53:21;;;;;;;9.82;4.60;;;;;;;21.92;60.13;100280.13;5048777;28;20044;-82
2022/08/05 01:55:50;;;;;;;11.25;4.72;;;;;;;21.88;60.59;100278.00;5050583;28;20034;-82
2022/08/05 01:58:16;;;;;;;7.80;4.13;;;;;;;21.72;60.75;100259.25;5048897;28;20087;-82
2022/08/05 02:00:46;;;;;;;12.30;4.63;;;;;;;21.73;60.86;100263.72;5053598;28;20017;-82
2022/08/05 02:03:22;;;;;;;7.50;5.28;;;;;;;21.78;60.88;100278.44;5070188;28;20714;-82
2022/08/05 02:05:48;;;;;;;7.00;4.97;;;;;;;21.60;60.97;100252.75;5054226;28;20072;-82
2022/08/05 02:08:14;;;;;;;11.73;4.95;;;;;;;21.71;61.39;100277.53;5065624;28;20010;-82
2022/08/05 02:10:47;;;;;;;10.98;4.47;;;;;;;21.62;61.52;100269.75;5053777;28;20008;-82
2022/08/05 02:13:17;;;;;;;9.93;4.47;;;;;;;21.67;61.66;100283.63;5053752;28;20020;-82
2022/08/05 02:15:48;;;;;;;9.23;4.30;;;;;;;21.64;61.84;100276.66;5053754;28;20014;-82
2022/08/05 02:18:22;;;;;;;6.35;5.25;;;;;;;21.62;61.87;100280.66;5070164;28;20036;-81
2022/08/05 02:21:02;;;;;;;14.05;5.40;;;;;;;21.25;61.72;100212.97;5047774;28;20486;-82
2022/08/05 02:23:31;;;;;;;7.15;5.30;;;;;;;21.46;62.08;100262.78;5039674;28;20139;-81
2022/08/05 02:26:01;;;;;;;5.93;5.05;;;;;;;21.51;62.09;100275.81;5054154;28;20116;-82
2022/08/05 02:28:33;;;;;;;9.90;4.78;;;;;;;21.48;62.34;100278.94;5054885;28;20033;-82
2022/08/05 02:31:09;;;;;;;9.68;4.55;;;;;;;21.35;62.59;100257.91;5068569;28;20029;-81
2022/08/05 02:33:39;;;;;;;8.90;4.53;;;;;;;21.33;62.54;100256.44;5050394;28;20069;-82
2022/08/05 02:36:09;;;;;;;11.55;5.10;;;;;;;21.05;63.15;100209.34;5050056;28;20022;-81
2022/08/05 02:38:35;;;;;;;10.63;5.50;;;;;;;21.24;62.89;100242.13;5047775;28;20026;-81
2022/08/05 02:41:03;;;;;;;16.20;4.97;;;;;;;21.27;63.14;100251.78;5050871;28;20013;-82
2022/08/05 02:43:31;;;;;;;9.18;5.57;;;;;;;21.31;63.28;100266.72;5040426;28;20035;-81
2022/08/05 02:45:58;;;;;;;8.65;5.15;;;;;;;21.14;63.84;100243.56;5056862;28;20339;-82
2022/08/05 02:48:25;;;;;;;6.95;4.32;;;;;;;21.11;63.77;100243.97;5036672;28;20032;-81
2022/08/05 02:50:52;;;;;;;17.17;5.00;;;;;;;20.97;64.07;100221.28;5036623;28;20029;-82
2022/08/05 02:53:20;;;;;;;12.82;5.07;;;;;;;21.06;63.98;100247.34;5030664;28;20463;-81
2022/08/05 02:55:47;;;;;;;10.77;5.18;;;;;;;21.17;64.21;100267.72;5021695;28;20029;-82
2022/08/05 02:58:15;;;;;;;8.80;4.65;;;;;;;21.02;64.30;100251.50;5020017;28;20030;-81
2022/08/05 03:00:43;;;;;;;17.15;5.65;;;;;;;20.97;64.12;100251.28;5028521;28;20356;-82
2022/08/05 03:03:10;;;;;;;11.00;5.45;;;;;;;20.98;63.44;100257.56;5035757;28;20033;-82
2022/08/05 03:05:38;;;;;;;7.30;4.97;;;;;;;20.91;62.99;100245.75;5034626;28;20021;-74
2022/08/05 03:08:04;;;;;;;8.40;4.63;;;;;;;20.87;62.84;100228.97;5041616;28;20050;-75
2022/08/05 03:10:30;;;;;;;11.77;5.18;;;;;;;21.03;62.26;100244.16;5019644;28;20030;-75
2022/08/05 03:12:55;;;;;;;9.65;4.45;;;;;;;21.10;61.59;100250.47;5024359;28;20040;-75
2022/08/05 03:15:21;;;;;;;10.60;3.95;;;;;;;21.02;61.17;100248.75;5024295;28;20558;-75
2022/08/05 03:17:47;;;;;;;7.38;4.53;;;;;;;21.18;60.61;100264.78;5028837;28;20052;-75
2022/08/05 03:20:12;;;;;;;9.43;4.40;;;;;;;21.30;60.04;100278.66;5017569;28;20030;-75
2022/08/05 03:22:38;;;;;;;10.77;4.70;;;;;;;21.24;60.46;100257.66;5034210;28;20037;-74
2022/08/05 03:25:04;;;;;;;8.68;4.68;;;;;;;21.20;59.77;100254.50;5028827;28;20053;-74
2022/08/05 03:27:31;;;;;;;6.75;4.75;;;;;;;21.39;59.60;100277.44;5017704;28;20045;-75
2022/08/05 03:29:57;;;;;;;10.13;4.25;;;;;;;21.34;59.45;100271.75;5021192;28;20032;-74
2022/08/05 03:32:23;;;;;;;7.28;3.80;;;;;;;21.39;59.66;100278.31;5026105;28;20498;-74
2022/08/05 03:34:49;;;;;;;13.85;4.85;;;;;;;21.24;60.12;100252.19;5023081;28;20072;-75
2022/08/05 03:37:15;;;;;;;10.20;4.88;;;;;;;21.29;60.14;100263.34;5020256;28;20029;-75
2022/08/05 03:40:02;;;;;;;8.63;4.82;;;;;;;21.28;60.08;100273.41;5031139;28;20033;-74
2022/08/05 03:42:28;;;;;;;9.82;4.78;;;;;;;21.13;60.25;100255.53;5028593;28;20021;-75
2022/08/05 03:44:54;;;;;;;5.53;3.70;;;;;;;21.25;60.86;100275.72;5031311;28;20065;-75
2022/08/05 03:47:19;;;;;;;12.93;5.03;;;;;;;21.16;60.94;100266.03;5041309;28;20029;-75
2022/08/05 03:49:45;;;;;;;10.02;5.00;;;;;;;20.98;61.23;100233.00;5050632;28;20047;-75
2022/08/05 03:52:19;;;;;;;16.90;5.38;;;;;;;21.06;60.90;100255.53;5049954;28;20112;-75
2022/08/05 03:54:55;;;;;;;16.67;5.13;;;;;;;21.09;61.23;100257.00;5034107;28;20104;-74
2022/08/05 03:57:25;;;;;;;9.82;5.18;;;;;;;21.08;61.03;100266.19;5029316;28;20021;-76
2022/08/05 04:00:14;;;;;;;13.77;4.60;;;;;;;21.11;61.24;100269.38;5029684;28;20029;-75
2022/08/05 04:02:43;;;;;;;24.55;6.47;;;;;;;21.04;61.75;100264.94;5029084;28;20075;-75
2022/08/05 04:05:11;;;;;;;22.90;5.80;;;;;;;21.00;62.66;100255.47;5031490;28;20079;-75
2022/08/05 04:07:41;;;;;;;19.00;5.82;;;;;;;20.98;62.36;100257.56;5031267;28;20494;-75
2022/08/05 04:10:07;;;;;;;25.33;6.20;;;;;;;21.02;62.08;100264.31;5025724;28;20036;-75
2022/08/05 04:12:34;;;;;;;12.35;5.80;;;;;;;20.80;62.99;100216.34;5031081;28;20132;-75
2022/08/05 04:15:00;;;;;;;18.98;5.85;;;;;;;20.99;62.42;100251.91;5031057;28;20109;-76
2022/08/05 04:17:26;;;;;;;39.13;8.63;;;;;;;21.17;63.67;100274.00;5029131;28;20025;-74
2022/08/05 04:19:52;;;;;;;70.28;9.82;;;;;;;21.21;64.88;100279.88;5050368;28;20032;-74
2022/08/05 04:22:17;;;;;;;30.25;6.22;;;;;;;21.05;62.76;100242.09;5050093;28;20017;-76
2022/08/05 04:24:45;;;;;;;27.33;6.10;;;;;;;21.32;62.61;100273.88;5049166;28;20057;-75
2022/08/05 04:27:13;;;;;;;32.70;6.80;;;;;;;21.31;61.73;100258.53;5049216;28;20018;-75
2022/08/05 04:29:39;;;;;;;17.65;5.30;;;;;;;21.35;61.99;100249.72;5050061;28;20032;-75
2022/08/05 04:32:06;;;;;;;14.43;5.38;;;;;;;21.52;61.95;100264.69;5049953;28;20025;-76
2022/08/05 04:34:32;;;;;;;14.35;4.80;;;;;;;21.70;60.58;100275.84;5044375;28;20022;-76
2022/08/05 04:36:57;;;;;;;13.30;5.35;;;;;;;21.71;60.50;100261.16;5036414;28;20029;-76
2022/08/05 04:39:23;;;;;;;18.55;5.38;;;;;;;21.93;60.09;100280.97;5043813;28;20022;-75
2022/08/05 04:41:49;;;;;;;14.90;5.55;;;;;;;21.92;60.77;100247.34;5033629;28;20293;-76
2022/08/05 04:44:15;;;;;;;24.73;5.68;;;;;;;22.20;60.63;100266.25;5044552;28;20009;-76
2022/08/05 04:46:41;;;;;;;15.95;5.88;;;;;;;21.86;59.49;100185.34;5034140;28;20048;-75
2022/08/05 04:49:06;;;;;;;11.70;5.30;;;;;;;22.53;59.03;100267.09;5034726;28;20085;-76
2022/08/05 04:51:32;;;;;;;16.92;5.85;;;;;;;22.66;58.62;100258.84;5045952;28;20124;-76
2022/08/05 04:53:58;;;;;;;18.67;5.65;;;;;;;22.81;58.32;100254.00;5046999;28;20024;-72
2022/08/05 04:56:24;;;;;;;24.83;5.10;;;;;;;22.94;57.83;100255.84;5035686;28;20091;-75
2022/08/05 04:58:50;;;;;;;29.55;5.28;;;;;;;23.18;57.49;100260.59;5031993;28;20123;-75
2022/08/05 05:01:15;;;;;;;26.65;5.80;;;;;;;23.22;57.05;100237.22;5031527;28;20037;-73
2022/08/05 05:03:41;;;;;;;17.92;5.15;;;;;;;23.42;56.54;100246.19;5030435;28;20116;-75
2022/08/05 05:06:11;;;;;;;22.27;5.20;;;;;;;23.62;55.76;100252.38;5031363;28;20029;-74
2022/08/05 05:08:38;;;;;;;11.25;4.70;;;;;;;23.86;55.21;100260.63;5030839;28;20038;-75
2022/08/05 05:11:04;;;;;;;12.32;4.93;;;;;;;24.08;55.16;100258.38;5030637;28;20120;-75
2022/08/05 05:13:29;;;;;;;15.57;4.55;;;;;;;24.29;54.42;100261.59;5031641;28;20112;-75
2022/08/05 05:15:55;;;;;;;11.63;4.55;;;;;;;24.52;53.50;100265.59;5023133;28;20094;-75
2022/08/05 05:18:21;;;;;;;9.70;3.60;;;;;;;24.77;51.89;100259.03;5023604;28;20045;-75
2022/08/05 05:20:46;;;;;;;12.60;3.97;;;;;;;24.93;49.46;100243.88;5031379;28;20025;-76
2022/08/05 05:23:12;;;;;;;9.75;3.38;;;;;;;25.18;48.87;100250.09;5045516;28;20018;-75
2022/08/05 05:25:42;;;;;;;7.18;3.33;;;;;;;25.50;47.35;100255.19;5048616;28;20033;-73
2022/08/05 05:28:09;;;;;;;9.90;3.05;;;;;;;25.65;46.54;100239.13;5044599;28;20056;-73
2022/08/05 05:30:34;;;;;;;7.53;3.20;;;;;;;25.94;45.29;100251.13;5049770;28;20056;-74
2022/08/05 05:33:03;;;;;;;7.70;3.13;;;;;;;26.15;44.53;100250.63;5048716;28;20010;-73
2022/08/05 05:35:29;;;;;;;6.18;3.15;;;;;;;26.39;44.27;100255.06;5051307;28;20014;-74
2022/08/05 05:37:59;;;;;;;5.78;2.50;;;;;;;26.53;43.26;100229.81;5050615;28;20052;-73
2022/08/05 05:40:25;;;;;;;2.67;2.20;;;;;;;26.88;41.94;100249.06;5051920;28;20033;-71
2022/08/05 05:42:51;;;;;;;3.95;3.05;;;;;;;27.01;41.08;100235.03;5039967;28;20099;-71
2022/08/05 05:45:18;;;;;;;8.38;2.67;;;;;;;27.26;40.70;100251.28;5033303;28;20558;-71
2022/08/05 05:47:44;;;;;;;12.02;2.88;;;;;;;27.33;40.68;100233.53;5033477;28;20025;-71
2022/08/05 05:50:12;;;;;;;7.60;3.13;;;;;;;27.63;40.49;100258.09;5033815;28;20110;-71
2022/08/05 05:52:37;;;;;;;7.32;2.40;;;;;;;27.82;40.02;100256.81;5033164;28;20052;-71
2022/08/05 05:55:07;;;;;;;4.38;2.85;;;;;;;27.98;39.35;100256.84;5034097;28;20566;-71
2022/08/05 05:57:34;;;;;;;4.55;2.40;;;;;;;28.14;38.56;100244.16;5033551;28;20029;-75
2022/08/05 05:59:59;;;;;;;4.95;2.63;;;;;;;28.40;37.92;100255.38;5033931;28;20033;-75
2022/08/05 06:02:25;;;;;;;4.35;2.30;;;;;;;28.62;37.22;100243.59;5050579;28;20502;-74
2022/08/05 06:04:50;;;;;;;5.30;2.60;;;;;;;28.66;37.26;100228.19;5033938;28;20091;-80
2022/08/05 06:07:16;;;;;;;4.85;2.70;;;;;;;28.76;36.97;100220.03;5034484;28;20009;-81
2022/08/05 06:09:42;;;;;;;4.38;2.35;;;;;;;29.07;36.79;100235.94;5032295;28;20033;-81
2022/08/05 06:12:08;;;;;;;4.40;2.17;;;;;;;29.15;36.15;100228.06;5032786;28;20401;-80
2022/08/05 06:14:33;;;;;;;8.38;2.30;;;;;;;29.35;35.56;100228.31;5030600;28;20026;-80
2022/08/05 06:16:59;;;;;;;4.45;2.20;;;;;;;29.26;35.40;100195.84;5033529;28;20026;-80
2022/08/05 06:19:25;;;;;;;5.90;2.50;;;;;;;29.67;35.36;100240.31;5034602;28;20053;-80
2022/08/05 06:21:50;;;;;;;7.10;2.78;;;;;;;29.61;34.96;100210.94;5033626;28;20108;-80
2022/08/05 06:24:16;;;;;;;7.05;2.53;;;;;;;29.93;34.97;100245.00;5034320;28;20097;-80
2022/08/05 06:26:42;;;;;;;7.57;2.25;;;;;;;30.04;34.52;100234.81;5033766;28;20037;-81
2022/08/05 06:29:07;;;;;;;4.28;2.22;;;;;;;30.14;34.43;100223.84;5033738;28;20033;-80
2022/08/05 06:31:33;;;;;;;7.05;2.38;;;;;;;30.20;34.29;100212.59;5034006;28;20025;-80
2022/08/05 06:33:58;;;;;;;3.20;2.30;;;;;;;30.59;34.07;100238.91;5033993;28;20163;-80
2022/08/05 06:36:24;;;;;;;5.63;2.35;;;;;;;30.59;33.45;100222.28;5031575;28;20029;-80
2022/08/05 06:38:53;;;;;;;10.13;2.72;;;;;;;30.74;33.48;100223.50;5034014;28;20037;-80
2022/08/05 06:41:19;;;;;;;5.38;2.28;;;;;;;30.95;33.38;100239.16;5029317;28;20025;-80
2022/08/05 06:43:44;;;;;;;5.70;2.33;;;;;;;31.13;33.03;100245.06;5032280;28;20120;-80
2022/08/05 06:46:10;;;;;;;5.32;2.78;;;;;;;31.15;33.03;100220.69;5032898;28;20138;-76
2022/08/05 06:48:35;;;;;;;4.50;1.98;;;;;;;31.35;32.53;100226.31;5032064;28;20423;-75
2022/08/05 06:51:03;;;;;;;7.13;2.50;;;;;;;31.62;32.54;100248.28;5030687;28;20025;-75
2022/08/05 06:53:28;;;;;;;3.95;1.90;;;;;;;31.75;32.23;100243.06;5032407;28;20018;-75
2022/08/05 06:55:55;;;;;;;4.85;1.95;;;;;;;31.78;31.76;100225.00;5030566;28;20040;-75
2022/08/05 06:58:21;;;;;;;7.07;2.25;;;;;;;32.00;31.24;100237.56;5030950;28;20026;-75
2022/08/05 07:00:46;;;;;;;2.67;2.35;;;;;;;32.23;31.09;100245.34;5032036;28;20522;-76
2022/08/05 07:03:12;;;;;;;5.70;2.33;;;;;;;32.27;30.72;100224.25;5030949;28;20029;-76
2022/08/05 07:05:37;;;;;;;5.70;2.53;;;;;;;32.34;30.22;100204.56;5030967;28;20462;-76
2022/08/05 07:08:03;;;;;;;4.35;1.95;;;;;;;32.71;30.44;100252.28;5031821;28;20021;-76
2022/08/05 07:10:28;;;;;;;4.55;2.13;;;;;;;32.83;30.42;100254.75;5030926;28;20041;-74
2022/08/05 07:18:23;;;;;;;;;;;;;;;33.13;29.44;100240.78;5027840;28;20028;-74
2022/08/05 07:20:48;;;;;;;5.03;2.08;;;;;;;33.24;29.13;100240.44;5031210;28;19924;-75
2022/08/05 07:23:14;;;;;;;3.83;1.83;;;;;;;33.23;29.40;100224.06;5029403;28;20034;-74
2022/08/05 07:25:39;;;;;;;4.82;2.20;;;;;;;33.38;28.92;100232.38;5030478;28;20054;-75
2022/08/05 07:28:05;;;;;;;8.13;2.20;;;;;;;33.50;28.74;100238.44;5030992;28;20025;-75
2022/08/05 07:30:32;;;;;;;5.85;2.20;;;;;;;33.58;28.91;100240.59;5030693;28;20083;-75
2022/08/05 07:32:58;;;;;;;6.30;2.20;;;;;;;33.53;28.25;100221.16;5045928;28;20029;-76
2022/08/05 07:35:23;;;;;;;7.85;2.33;;;;;;;33.67;28.21;100238.88;5029652;28;20036;-75
2022/08/05 07:37:49;;;;;;;10.02;2.53;;;;;;;33.67;28.31;100219.41;5029680;28;20112;-74
2022/08/05 07:40:14;;;;;;;6.97;2.25;;;;;;;33.81;28.18;100234.31;5028954;28;20183;-75
2022/08/05 07:42:40;;;;;;;3.92;2.20;;;;;;;33.65;27.73;100197.41;5030725;28;20029;-76
2022/08/05 07:45:06;;;;;;;4.25;1.83;;;;;;;34.00;27.85;100249.25;5031531;28;20026;-75
2022/08/05 07:47:31;;;;;;;2.75;1.98;;;;;;;34.04;27.89;100233.63;5029533;28;20382;-74
2022/08/05 07:49:57;;;;;;;6.00;2.08;;;;;;;33.96;27.58;100212.81;5028993;28;20033;-76
2022/08/05 07:52:22;;;;;;;4.57;1.52;;;;;;;34.00;27.07;100205.53;5030770;28;20040;-75
2022/08/05 07:54:48;;;;;;;2.40;1.80;;;;;;;34.06;27.41;100214.69;5029176;28;20050;-75
2022/08/05 07:57:13;;;;;;;2.33;1.85;;;;;;;34.22;27.51;100230.97;5029782;28;20037;-75
2022/08/05 07:59:39;;;;;;;2.83;1.92;;;;;;;34.24;27.51;100223.16;5030776;28;20033;-80
2022/08/05 08:02:06;;;;;;;3.10;1.90;;;;;;;34.32;27.15;100224.47;5032914;28;20029;-81
2022/08/05 08:04:32;;;;;;;3.30;1.67;;;;;;;34.41;27.08;100234.75;5032194;28;20029;-81
2022/08/05 08:06:59;;;;;;;2.53;1.60;;;;;;;34.40;26.78;100221.91;5031774;28;20048;-80
2022/08/05 08:09:25;;;;;;;7.18;2.45;;;;;;;34.40;27.06;100226.69;5032582;28;20044;-80
2022/08/05 08:11:51;;;;;;;2.13;1.90;;;;;;;34.50;26.63;100230.19;5031325;28;20041;-80
2022/08/05 08:14:16;;;;;;;4.07;2.03;;;;;;;34.41;26.55;100212.47;5030229;28;20040;-81
2022/08/05 08:16:42;;;;;;;2.80;1.92;;;;;;;34.59;26.70;100230.38;5029094;28;20493;-80
2022/08/05 08:19:07;;;;;;;4.85;2.13;;;;;;;34.65;26.42;100228.38;5032273;28;20037;-81
2022/08/05 08:21:33;;;;;;;6.07;2.17;;;;;;;34.55;26.30;100198.66;5032820;28;20025;-80
2022/08/05 08:23:59;;;;;;;3.28;1.88;;;;;;;34.68;26.50;100205.50;5032729;28;20060;-79
2022/08/05 08:26:24;;;;;;;3.22;2.00;;;;;;;34.87;26.27;100226.75;5032589;28;20036;-80
2022/08/05 08:28:49;;;;;;;2.15;1.75;;;;;;;34.94;26.10;100221.66;5034123;28;20030;-81
2022/08/05 08:31:16;;;;;;;4.93;2.28;;;;;;;34.89;26.07;100206.94;5032198;28;20029;-81
2022/08/05 08:33:42;;;;;;;3.78;1.95;;;;;;;34.96;25.83;100202.69;5032187;28;20056;-81
2022/08/05 08:36:08;;;;;;;3.22;1.85;;;;;;;34.80;25.84;100170.50;5030728;28;20053;-79
2022/08/05 08:38:34;;;;;;;4.57;2.30;;;;;;;35.06;26.09;100207.28;5032394;28;20052;-80
2022/08/05 08:41:04;;;;;;;5.55;1.95;;;;;;;35.01;25.70;100197.03;5034642;28;20029;-80
2022/08/05 08:43:31;;;;;;;1.60;1.48;;;;;;;35.17;25.81;100214.41;5046481;28;20483;-81
2022/08/05 08:46:00;;;;;;;3.33;1.90;;;;;;;35.19;25.81;100204.63;5030037;28;20025;-81
2022/08/05 08:48:27;;;;;;;2.15;1.73;;;;;;;35.31;25.54;100212.53;5029112;28;20029;-80
2022/08/05 08:50:53;;;;;;;2.05;1.88;;;;;;;35.32;25.74;100198.34;5028829;28;20032;-81
2022/08/05 08:53:19;;;;;;;3.97;2.00;;;;;;;35.37;25.64;100206.66;5029848;28;20021;-81
2022/08/05 08:55:45;;;;;;;4.95;2.10;;;;;;;35.36;25.47;100199.38;5028680;28;20037;-80
2022/08/05 08:58:10;;;;;;;3.60;1.90;;;;;;;35.35;25.45;100178.19;5044400;28;20041;-81
2022/08/05 09:00:36;;;;;;;2.22;2.00;;;;;;;35.62;25.05;100206.25;5027654;28;20025;-81
2022/08/05 09:03:05;;;;;;;2.00;1.90;;;;;;;35.68;24.92;100210.63;5028976;28;20036;-80
2022/08/05 09:05:30;;;;;;;3.20;1.90;;;;;;;35.58;24.96;100177.31;5030534;28;20505;-80
2022/08/05 09:07:56;;;;;;;2.88;2.10;;;;;;;35.75;24.96;100194.34;5047300;28;20057;-80
2022/08/05 09:10:22;;;;;;;3.53;2.00;;;;;;;35.82;25.00;100210.75;5035997;28;20697;-80
2022/08/05 09:12:48;;;;;;;3.17;1.92;;;;;;;35.70;24.93;100191.63;5052181;28;20025;-80
2022/08/05 09:15:14;;;;;;;5.70;2.20;;;;;;;35.82;24.76;100205.97;5032970;28;20029;-80
2022/08/05 09:17:40;;;;;;;3.92;1.90;;;;;;;35.79;25.24;100198.19;5035256;28;20082;-80
2022/08/05 09:20:06;;;;;;;3.63;2.00;;;;;;;35.75;25.06;100193.53;5036358;28;20407;-80
2022/08/05 09:23:03;;;;;;;5.70;2.00;;;;;;;35.77;24.94;100197.66;5036247;28;20029;-81
2022/08/05 09:25:28;;;;;;;3.25;1.73;;;;;;;35.77;25.06;100188.44;5033085;28;20048;-80
2022/08/05 09:27:54;;;;;;;5.65;2.03;;;;;;;35.85;25.10;100199.78;5035393;28;20038;-80
2022/08/05 09:30:20;;;;;;;2.55;1.98;;;;;;;35.87;25.08;100188.31;5037752;28;20037;-81
2022/08/05 09:32:45;;;;;;;5.35;2.08;;;;;;;35.92;24.70;100193.84;5037147;28;20162;-80
2022/08/05 09:35:13;;;;;;;6.80;2.50;;;;;;;35.71;24.67;100165.38;5036238;28;20031;-80
2022/08/05 09:37:50;;;;;;;6.72;2.50;;;;;;;35.86;24.85;100173.53;5035657;28;20018;-81
2022/08/05 09:40:39;;;;;;;3.47;2.25;;;;;;;35.84;24.68;100150.66;5037522;28;20410;-82
2022/08/05 09:43:09;;;;;;;4.68;2.10;;;;;;;35.86;24.69;100145.63;5037734;28;20033;-81
2022/08/05 09:45:41;;;;;;;3.50;2.10;;;;;;;36.06;24.58;100169.56;5037378;28;20475;-82
2022/08/05 09:48:19;;;;;;;3.28;2.45;;;;;;;36.11;24.84;100175.88;5052697;28;20394;-81
2022/08/05 09:50:49;;;;;;;3.85;2.20;;;;;;;36.04;24.73;100169.88;5036748;28;20489;-81
2022/08/05 09:53:15;;;;;;;3.15;1.98;;;;;;;36.14;24.60;100186.44;5032908;28;20029;-82
2022/08/05 09:55:40;;;;;;;3.67;2.30;;;;;;;35.89;25.05;100138.59;5035566;28;20106;-80
2022/08/05 09:58:13;;;;;;;2.47;2.17;;;;;;;36.17;24.86;100183.06;5036397;28;20036;-81
2022/08/05 10:00:50;;;;;;;4.03;2.33;;;;;;;36.04;24.68;100144.72;5053323;28;20078;-80
2022/08/05 10:03:16;;;;;;;2.28;1.90;;;;;;;36.21;24.92;100158.94;5034900;28;20116;-80
2022/08/05 10:05:41;;;;;;;4.00;2.35;;;;;;;36.20;24.55;100153.66;5035443;28;20040;-81
2022/08/05 10:08:07;;;;;;;3.63;2.05;;;;;;;36.14;24.39;100130.59;5036979;28;20078;-76
2022/08/05 10:11:00;;;;;;;2.30;2.03;;;;;;;36.36;24.46;100163.47;5034805;28;20502;-76
2022/08/05 10:13:29;;;;;;;8.20;2.45;;;;;;;36.20;24.36;100123.78;5035116;28;20068;-76
2022/08/05 10:15:57;;;;;;;2.50;2.30;;;;;;;36.18;24.58;100122.44;5031661;28;20507;-76
2022/08/05 10:18:24;;;;;;;4.43;2.35;;;;;;;36.44;24.65;100141.25;5035347;28;20052;-77
2022/08/05 10:21:01;;;;;;;4.45;2.53;;;;;;;36.52;24.81;100148.06;5032643;28;20028;-76
2022/08/05 10:23:28;;;;;;;2.45;2.10;;;;;;;36.58;24.32;100141.22;5031359;28;20823;-75
2022/08/05 10:25:55;;;;;;;3.45;2.15;;;;;;;36.54;24.46;100132.66;5032061;28;20495;-75
2022/08/05 10:28:21;;;;;;;2.88;2.33;;;;;;;36.46;24.39;100115.78;5030687;28;20479;-76
2022/08/05 10:30:47;;;;;;;5.20;2.63;;;;;;;36.69;24.43;100136.28;5030795;28;20025;-76
2022/08/05 10:33:12;;;;;;;3.63;2.00;;;;;;;36.71;23.84;100128.41;5032271;28;20501;-78
2022/08/05 10:35:38;;;;;;;3.53;2.28;;;;;;;36.61;23.75;100112.66;5032342;28;20025;-76
2022/08/05 10:38:04;;;;;;;4.70;2.40;;;;;;;36.60;24.07;100128.59;5031403;28;20121;-76
2022/08/05 10:40:53;;;;;;;3.60;2.38;;;;;;;36.58;24.10;100123.66;5047591;28;20041;-77
2022/08/05 10:43:37;;;;;;;3.72;2.60;;;;;;;36.54;24.31;100129.03;5031921;28;20083;-76
2022/08/05 10:46:08;;;;;;;5.20;2.40;;;;;;;36.49;24.16;100115.97;5033627;28;20049;-76
2022/08/05 10:48:35;;;;;;;3.25;2.10;;;;;;;36.51;23.90;100124.06;5031165;28;20032;-76
2022/08/05 10:51:05;;;;;;;3.40;2.30;;;;;;;36.42;24.16;100121.16;5032292;28;20052;-76
2022/08/05 10:53:39;;;;;;;3.63;2.30;;;;;;;36.39;24.42;100118.97;5030911;28;20029;-76
2022/08/05 10:56:10;;;;;;;6.68;2.35;;;;;;;36.30;24.44;100114.41;5031138;28;20025;-77
2022/08/05 10:58:47;;;;;;;3.17;2.28;;;;;;;36.09;24.27;100079.56;5047457;28;20507;-77
2022/08/05 11:01:12;;;;;;;3.88;2.45;;;;;;;36.08;24.08;100087.13;5030649;28;20026;-77
2022/08/05 11:03:59;;;;;;;4.20;2.20;;;;;;;36.09;24.63;100102.75;5031746;28;20414;-77
2022/08/05 11:06:24;;;;;;;2.10;2.00;;;;;;;35.95;24.70;100068.38;5047207;28;20021;-77
2022/08/05 11:09:14;;;;;;;5.03;2.28;;;;;;;36.16;24.74;100105.97;5029889;28;20152;-77
2022/08/05 11:11:41;;;;;;;6.00;2.60;;;;;;;36.09;25.04;100097.19;5045898;28;20079;-82
2022/08/05 11:14:07;;;;;;;4.93;2.25;;;;;;;36.17;24.76;100109.59;5030792;28;20445;-82
2022/08/05 11:16:32;;;;;;;3.30;2.40;;;;;;;36.20;24.91;100101.41;5030446;28;20032;-82
2022/08/05 11:19:29;;;;;;;4.20;2.45;;;;;;;36.22;24.73;100095.53;5031913;28;20582;-82
2022/08/05 11:22:33;;;;;;;2.47;2.28;;;;;;;36.24;24.65;100091.28;5026823;28;20033;-82
2022/08/05 11:25:27;;;;;;;4.53;2.28;;;;;;;36.30;24.44;100089.28;5029781;28;20049;-79
2022/08/05 11:27:53;;;;;;;5.97;2.60;;;;;;;36.26;25.11;100072.28;5025691;28;20554;-82
2022/08/05 11:30:19;;;;;;;2.92;2.40;;;;;;;36.20;24.62;100055.88;5031114;28;20100;-80
2022/08/05 11:32:45;;;;;;;4.18;2.63;;;;;;;36.31;24.48;100069.41;5029179;28;20029;-81
2022/08/05 11:35:56;;;;;;;3.70;2.25;;;;;;;36.41;24.33;100074.78;5031933;28;20390;-81